Brighton, MI (48114)

2:14 AM EDT on October 01, 2016 (GMT -0400)
Brighton Airport Area | | Change Station

Elev 1000 ft 42.57 °N, 83.78 °W | Updated 95 days ago

Rain
Rain
59 °F
Feels Like 59 °F
N
7
Wind Variable Wind from East
Gusts 12 mph

Today
High -- | Low -- °F
--% Chance of Precip.
Yesterday
High -- | Low -- °F
Precip. -- in
Pressure 30.10 in
Visibility 2.5 miles
Clouds Overcast 600 ft
Dew Point 58 °F
Humidity 96%
Rainfall in
Snow Depth Not available.
7:32 AM 7:15 PM
New Moon, 0% visible
METAR KOZW 010554Z AUTO 06004KT 2 1/2SM DZ OVC006 13/13 A3010 RMK AO2 T01340131
Pressure 30.10 in
Visibility 2.5 miles
Clouds Overcast 600 ft
Dew Point 58 °F
Humidity 96%
Rainfall in
Snow Depth Not available.
7:32 AM 7:15 PM
New Moon, 0% visible
METAR KOZW 010554Z AUTO 06004KT 2 1/2SM DZ OVC006 13/13 A3010 RMK AO2 T01340131

10-Day Weather Forecast

Almanac

Astronomy

Oct. 01, 2016 Rise Set
Actual Time
Civil Twilight
Nautical Twilight
Astronomical Twilight
Moon
Length of Visible Light
Length of Day
Tomorrow will be .
, % of the Moon is Illuminated

Today's Extremes

State Highs State Lows

Community

WunderPhotos

Upload Photos

1,942,898 photos uploaded!

WunderBlog® & News

Nearby

Air Quality

  Air Quality AQ Index Pollutant
Not available.

Snow Depth

Station Depth Elevation

Earthquake Activity

City Distance Mag. Time & Date
Minimum magnitude displayed is 2.5.

Coastal Water Temperatures

Place Temperature

Stations

Nearby Weather Stations

Station Location Temp. Windchill Dew Point Humidity Wind Precip. Elev Updated Type
                   

Watches & Warnings

There are currently no watches in effect.